Time;durP1;ratioP1;P1;durP2;ratioP2;P2;SDS_P1;SDS_P2;PMS_P1;PMS_P2;Temp;Humidity;BMP_temperature;BMP_pressure;BME280_temperature;BME280_humidity;BME280_pressure;Samples;Min_cycle;Max_cycle;Signal;HPM_P1;HPM_P2
2021/04/03 00:00:28;;;;;;;8.03;2.43;;;7.10;99.90;;;;;;4999516;28;20057;-66
2021/04/03 00:02:55;;;;;;;10.67;2.77;;;7.10;99.90;;;;;;5000867;28;20067;-66
2021/04/03 00:05:23;;;;;;;8.40;2.73;;;7.20;99.90;;;;;;4995613;28;20053;-66
2021/04/03 00:07:50;;;;;;;8.03;2.80;;;7.20;99.90;;;;;;5004115;28;20092;-66
2021/04/03 00:10:22;;;;;;;9.10;2.50;;;7.20;99.90;;;;;;5007737;28;20053;-67
2021/04/03 00:12:49;;;;;;;6.50;2.47;;;7.30;99.90;;;;;;5006620;28;20063;-66
2021/04/03 00:15:16;;;;;;;11.80;2.63;;;7.20;99.90;;;;;;5005090;28;20041;-66
2021/04/03 00:17:42;;;;;;;9.47;2.70;;;7.20;99.90;;;;;;5001794;28;20581;-66
2021/04/03 00:20:12;;;;;;;10.20;2.47;;;7.10;99.90;;;;;;5003914;28;20081;-66
2021/04/03 00:22:40;;;;;;;8.37;2.47;;;7.20;99.90;;;;;;4993244;28;20049;-66
2021/04/03 00:25:08;;;;;;;8.07;2.43;;;7.30;99.90;;;;;;4990531;28;20049;-66
2021/04/03 00:27:36;;;;;;;7.13;2.83;;;7.40;99.90;;;;;;5004481;28;20045;-66
2021/04/03 00:30:14;;;;;;;9.63;2.10;;;7.30;99.90;;;;;;5003274;28;20060;-66
2021/04/03 00:32:42;;;;;;;8.40;2.37;;;7.20;99.90;;;;;;5004298;28;20057;-67
2021/04/03 00:35:10;;;;;;;9.57;2.10;;;7.30;99.90;;;;;;5006414;28;20057;-68
2021/04/03 00:37:37;;;;;;;8.03;1.80;;;7.30;99.90;;;;;;5003737;28;20057;-67
2021/04/03 00:40:07;;;;;;;6.93;2.00;;;7.40;99.90;;;;;;5002456;28;20494;-68
2021/04/03 00:42:34;;;;;;;8.53;2.00;;;7.30;99.90;;;;;;5004142;28;20053;-68
2021/04/03 00:45:01;;;;;;;6.90;1.90;;;7.30;99.90;;;;;;5002108;28;20132;-68
2021/04/03 00:47:28;;;;;;;7.20;1.87;;;7.30;99.90;;;;;;5000349;28;20087;-68
2021/04/03 00:49:54;;;;;;;10.23;1.97;;;7.20;99.90;;;;;;5002515;28;20049;-68
2021/04/03 00:52:21;;;;;;;;;;;7.40;99.90;;;;;;5004223;28;20053;-68
2021/04/03 00:54:48;;;;;;;6.17;2.40;;;7.30;99.90;;;;;;5005913;28;20840;-68
2021/04/03 00:57:15;;;;;;;8.23;1.93;;;7.30;99.90;;;;;;5002819;28;20156;-68
2021/04/03 00:59:42;;;;;;;9.53;2.10;;;7.40;99.90;;;;;;5003273;28;20057;-68
2021/04/03 01:02:09;;;;;;;6.80;1.80;;;7.40;99.90;;;;;;5001954;28;20122;-68
2021/04/03 01:04:38;;;;;;;5.33;1.83;;;7.40;99.90;;;;;;5000872;28;20053;-68
2021/04/03 01:07:05;;;;;;;7.03;2.13;;;7.40;99.90;;;;;;4999911;28;20585;-68
2021/04/03 01:09:36;;;;;;;8.70;2.33;;;7.40;99.90;;;;;;5002395;28;20504;-68
2021/04/03 01:12:17;;;;;;;9.83;2.33;;;7.30;99.90;;;;;;5006613;28;20458;-68
2021/04/03 01:14:54;;;;;;;5.27;2.10;;;7.30;99.90;;;;;;5004073;28;20064;-68
2021/04/03 01:17:29;;;;;;;6.27;1.83;;;7.20;99.90;;;;;;5005131;28;20045;-68
2021/04/03 01:20:21;;;;;;;5.10;1.70;;;7.30;99.90;;;;;;5002904;28;20076;-68
2021/04/03 01:23:17;;;;;;;8.77;2.00;;;7.40;99.90;;;;;;5001610;28;20057;-68
2021/04/03 01:25:57;;;;;;;7.83;1.90;;;7.40;99.90;;;;;;5001091;28;20513;-68
2021/04/03 01:28:39;;;;;;;7.03;2.13;;;7.40;99.90;;;;;;4995724;28;20557;-68
2021/04/03 01:31:08;;;;;;;14.57;1.90;;;7.40;99.90;;;;;;4994352;28;20057;-68
2021/04/03 01:33:42;;;;;;;9.17;2.00;;;7.30;99.90;;;;;;4998535;28;20091;-68
2021/04/03 01:36:15;;;;;;;4.00;1.70;;;7.50;99.90;;;;;;4998839;28;20045;-68
2021/04/03 01:38:46;;;;;;;6.93;2.07;;;7.40;99.90;;;;;;5000608;28;20081;-68
2021/04/03 01:41:16;;;;;;;6.37;1.63;;;7.30;99.90;;;;;;5002120;28;20060;-68
2021/04/03 01:43:46;;;;;;;6.10;2.13;;;7.30;99.90;;;;;;4999074;28;20078;-67
2021/04/03 01:46:16;;;;;;;4.40;1.90;;;7.20;99.90;;;;;;5001012;28;20053;-68
2021/04/03 01:48:44;;;;;;;7.83;1.77;;;7.30;99.90;;;;;;5002970;28;20068;-68
2021/04/03 01:51:11;;;;;;;11.00;2.20;;;7.30;99.90;;;;;;4999415;28;20042;-68
2021/04/03 01:53:39;;;;;;;6.97;2.00;;;7.30;99.90;;;;;;4998824;28;20077;-68
2021/04/03 01:56:09;;;;;;;5.63;2.00;;;7.30;99.90;;;;;;4998250;28;20045;-68
2021/04/03 01:58:36;;;;;;;6.77;2.17;;;7.30;99.90;;;;;;4999935;28;20089;-67
2021/04/03 02:01:05;;;;;;;4.57;1.77;;;7.20;99.90;;;;;;5002229;28;20168;-68
2021/04/03 02:03:33;;;;;;;5.30;1.83;;;7.20;99.90;;;;;;4999966;28;20049;-68
2021/04/03 02:06:01;;;;;;;7.97;2.33;;;7.20;99.90;;;;;;5000597;28;20045;-69
2021/04/03 02:08:28;;;;;;;5.10;2.00;;;7.20;99.90;;;;;;5002672;28;20049;-68
2021/04/03 02:10:58;;;;;;;7.30;1.90;;;7.30;99.90;;;;;;5001454;28;20045;-68
2021/04/03 02:13:25;;;;;;;8.17;2.37;;;7.20;99.90;;;;;;5000001;28;20494;-68
2021/04/03 02:15:53;;;;;;;8.07;2.40;;;7.10;99.90;;;;;;4989129;28;20664;-67
2021/04/03 02:18:22;;;;;;;9.30;2.43;;;7.20;99.90;;;;;;4997957;28;20132;-68
2021/04/03 02:20:50;;;;;;;4.57;1.60;;;7.20;99.90;;;;;;4988198;28;20140;-68
2021/04/03 02:23:17;;;;;;;12.53;2.50;;;7.10;99.90;;;;;;4997741;28;20084;-68
2021/04/03 02:25:43;;;;;;;6.63;2.40;;;7.10;99.90;;;;;;4999701;28;20072;-68
2021/04/03 02:28:09;;;;;;;;;;;7.10;99.90;;;;;;4999718;28;20079;-68
2021/04/03 02:30:36;;;;;;;9.83;4.23;;;7.20;99.90;;;;;;4998981;28;19991;-68
2021/04/03 02:33:02;;;;;;;;;;;7.10;99.90;;;;;;4998598;28;20081;-68
2021/04/03 02:35:29;;;;;;;5.73;2.30;;;7.20;99.90;;;;;;5001908;28;19948;-68
2021/04/03 02:37:58;;;;;;;8.60;2.67;;;7.10;99.90;;;;;;5004006;28;20041;-68
2021/04/03 02:40:28;;;;;;;5.20;2.77;;;6.90;99.90;;;;;;5004571;28;20103;-69
2021/04/03 02:43:02;;;;;;;9.60;2.63;;;6.80;99.90;;;;;;5001180;28;20045;-68
2021/04/03 02:45:32;;;;;;;8.30;2.90;;;6.70;99.90;;;;;;5001033;28;20441;-68
2021/04/03 02:48:02;;;;;;;9.93;2.80;;;6.70;99.90;;;;;;5001546;28;20073;-68
2021/04/03 02:50:35;;;;;;;8.43;2.47;;;6.70;99.90;;;;;;5001836;28;20049;-68
2021/04/03 02:53:05;;;;;;;11.07;3.77;;;6.70;99.90;;;;;;5000505;28;20060;-68
2021/04/03 02:55:33;;;;;;;8.47;3.07;;;6.70;99.90;;;;;;5001611;28;20073;-68
2021/04/03 02:58:01;;;;;;;8.10;3.30;;;6.50;99.90;;;;;;4994109;28;20084;-68
2021/04/03 03:00:29;;;;;;;7.67;3.47;;;6.50;99.90;;;;;;4998941;28;20460;-68
2021/04/03 03:02:56;;;;;;;9.20;2.90;;;6.30;99.90;;;;;;4996624;28;20136;-68
2021/04/03 03:05:23;;;;;;;10.03;3.40;;;6.20;99.90;;;;;;5000240;28;20038;-68
2021/04/03 03:07:51;;;;;;;8.40;3.30;;;6.30;99.90;;;;;;5001557;28;20049;-68
2021/04/03 03:10:19;;;;;;;9.53;3.10;;;6.20;99.90;;;;;;5002174;28;20045;-68
2021/04/03 03:12:48;;;;;;;8.70;3.43;;;6.10;99.90;;;;;;5001090;28;20060;-68
2021/04/03 03:15:16;;;;;;;9.50;3.00;;;6.00;99.90;;;;;;4997293;28;20048;-68
2021/04/03 03:17:44;;;;;;;7.63;3.07;;;6.00;99.90;;;;;;5001975;28;20054;-67
2021/04/03 03:20:13;;;;;;;13.03;2.93;;;6.00;99.90;;;;;;5000054;28;20049;-68
2021/04/03 03:22:40;;;;;;;8.47;3.10;;;5.90;99.90;;;;;;5000154;28;20134;-68
2021/04/03 03:25:08;;;;;;;7.33;3.23;;;6.00;99.90;;;;;;5001678;28;20109;-68
2021/04/03 03:27:36;;;;;;;8.40;3.10;;;5.80;99.90;;;;;;5001844;28;20049;-68
2021/04/03 03:30:05;;;;;;;11.70;3.63;;;5.90;99.90;;;;;;5000228;28;20049;-68
2021/04/03 03:32:31;;;;;;;8.20;3.20;;;5.80;99.90;;;;;;4999436;28;20052;-67
2021/04/03 03:34:58;;;;;;;7.33;2.83;;;5.80;99.90;;;;;;5001085;28;20076;-67
2021/04/03 03:37:26;;;;;;;8.80;2.97;;;5.70;99.90;;;;;;4999335;28;20049;-68
2021/04/03 03:39:53;;;;;;;10.67;3.27;;;5.60;99.90;;;;;;4999912;28;20152;-67
2021/04/03 03:42:21;;;;;;;8.80;2.90;;;5.70;99.90;;;;;;4998112;28;20056;-68
2021/04/03 03:44:50;;;;;;;6.17;2.93;;;5.50;99.90;;;;;;5000847;28;20079;-68
2021/04/03 03:47:17;;;;;;;9.17;3.33;;;5.50;99.90;;;;;;5003526;28;20044;-67
2021/04/03 03:49:44;;;;;;;8.80;2.90;;;5.60;99.90;;;;;;4999557;28;20046;-67
2021/04/03 03:52:10;;;;;;;9.57;3.10;;;5.50;99.90;;;;;;4999547;28;20053;-68
2021/04/03 03:54:37;;;;;;;13.10;3.93;;;5.50;99.90;;;;;;5001556;28;20073;-68
2021/04/03 03:57:04;;;;;;;11.60;3.37;;;5.50;99.90;;;;;;5000436;28;20970;-68
2021/04/03 03:59:31;;;;;;;6.23;2.90;;;5.60;99.90;;;;;;5002216;28;20100;-70
2021/04/03 04:01:58;;;;;;;10.17;2.97;;;5.60;99.90;;;;;;5000917;28;20489;-68
2021/04/03 04:04:24;;;;;;;11.23;3.40;;;5.70;99.90;;;;;;5000220;28;20456;-68
2021/04/03 04:06:52;;;;;;;8.63;3.00;;;5.80;99.90;;;;;;5000420;28;20420;-68
2021/04/03 04:09:19;;;;;;;13.90;3.63;;;5.80;99.90;;;;;;5000968;28;20184;-68
2021/04/03 04:11:45;;;;;;;9.03;3.23;;;5.80;99.90;;;;;;5000989;28;20088;-67
2021/04/03 04:14:12;;;;;;;;;;;5.90;99.90;;;;;;4998993;28;20183;-68
2021/04/03 04:16:38;;;;;;;13.63;3.60;;;5.90;99.90;;;;;;4999412;28;20034;-68
2021/04/03 04:19:05;;;;;;;;;;;5.80;99.90;;;;;;5001723;28;20048;-68
2021/04/03 04:21:32;;;;;;;11.85;3.60;;;5.90;99.90;;;;;;5003343;28;19925;-68
2021/04/03 04:23:58;;;;;;;11.40;3.80;;;5.90;99.90;;;;;;5002788;28;20057;-68
2021/04/03 04:26:24;;;;;;;;;;;5.90;99.90;;;;;;5003871;28;20041;-68
2021/04/03 04:28:51;;;;;;;10.57;3.20;;;5.90;99.90;;;;;;5004623;28;19956;-68
2021/04/03 04:31:17;;;;;;;;;;;5.90;99.90;;;;;;5002677;28;20318;-68
2021/04/03 04:33:44;;;;;;;9.57;3.37;;;6.00;99.90;;;;;;5002942;28;19921;-68
2021/04/03 04:36:11;;;;;;;12.07;3.27;;;6.00;99.90;;;;;;5002503;28;20579;-68
2021/04/03 04:38:38;;;;;;;8.80;3.33;;;6.00;99.90;;;;;;5002364;28;20049;-68
2021/04/03 04:41:04;;;;;;;9.47;3.40;;;6.00;99.90;;;;;;5003032;28;20064;-68
2021/04/03 04:43:31;;;;;;;11.93;3.27;;;6.00;99.90;;;;;;5000594;28;20045;-68
2021/04/03 04:45:57;;;;;;;10.17;3.43;;;5.90;99.90;;;;;;5006151;28;20980;-68
2021/04/03 04:48:24;;;;;;;13.27;3.30;;;6.00;99.90;;;;;;5004404;28;20136;-69
2021/04/03 04:50:50;;;;;;;16.60;3.50;;;6.10;99.90;;;;;;5003299;28;20099;-68
2021/04/03 04:53:17;;;;;;;;;;;6.00;99.90;;;;;;5005096;28;20087;-68
2021/04/03 04:55:44;;;;;;;21.95;5.38;;;6.00;99.90;;;;;;5012660;28;20075;-68
2021/04/03 04:58:10;;;;;;;13.67;3.40;;;6.00;99.90;;;;;;5014960;28;20125;-68
2021/04/03 05:00:37;;;;;;;13.07;3.47;;;5.70;99.90;;;;;;5012517;28;20045;-69
2021/04/03 05:03:03;;;;;;;11.93;3.53;;;5.60;99.90;;;;;;5004541;28;20502;-69
2021/04/03 05:05:30;;;;;;;9.70;3.73;;;5.70;99.90;;;;;;5013777;28;20053;-68
2021/04/03 05:07:56;;;;;;;;;;;5.70;99.90;;;;;;5014151;28;20117;-68
2021/04/03 05:10:23;;;;;;;10.97;3.80;;;5.70;99.90;;;;;;5016397;28;19925;-68
2021/04/03 05:12:50;;;;;;;9.60;3.63;;;5.70;99.90;;;;;;5011065;28;20064;-68
2021/04/03 05:15:16;;;;;;;10.13;3.50;;;5.70;99.90;;;;;;5013098;28;20891;-68
2021/04/03 05:17:43;;;;;;;9.63;3.70;;;5.60;99.90;;;;;;5012003;28;20057;-68
2021/04/03 05:20:10;;;;;;;13.53;4.07;;;5.70;99.90;;;;;;5011377;28;20053;-68
2021/04/03 05:22:37;;;;;;;12.97;4.00;;;5.70;99.90;;;;;;5011739;28;20057;-70
2021/04/03 05:25:04;;;;;;;11.83;3.53;;;5.60;99.90;;;;;;5012576;28;20049;-68
2021/04/03 05:27:31;;;;;;;10.70;3.93;;;5.80;99.90;;;;;;5013725;28;20080;-68
2021/04/03 05:29:58;;;;;;;11.60;3.63;;;5.90;99.90;;;;;;5012100;28;20977;-68
2021/04/03 05:32:24;;;;;;;;;;;5.90;99.90;;;;;;5014362;28;20045;-68
2021/04/03 05:34:50;;;;;;;14.60;3.67;;;6.00;99.90;;;;;;5013430;28;19936;-67
2021/04/03 05:37:17;;;;;;;14.27;3.73;;;6.00;99.90;;;;;;5011001;28;20699;-68
2021/04/03 05:39:43;;;;;;;12.70;4.47;;;6.00;99.90;;;;;;5014203;28;20086;-68
2021/04/03 05:42:14;;;;;;;11.67;3.60;;;6.10;99.90;;;;;;5013495;28;20049;-68
2021/04/03 05:44:43;;;;;;;9.17;3.80;;;6.20;99.90;;;;;;5012516;28;20053;-68
2021/04/03 05:47:09;;;;;;;9.67;3.53;;;6.30;99.90;;;;;;5012823;28;20061;-68
2021/04/03 05:49:36;;;;;;;8.47;3.50;;;6.20;99.90;;;;;;5013282;28;20087;-71
2021/04/03 05:52:04;;;;;;;9.87;3.37;;;6.10;99.90;;;;;;5011836;28;20056;-65
2021/04/03 05:54:31;;;;;;;8.63;3.10;;;6.00;99.90;;;;;;5016214;28;20062;-66
2021/04/03 05:56:58;;;;;;;16.07;3.60;;;5.80;99.90;;;;;;5017836;28;20046;-68
2021/04/03 05:59:24;;;;;;;15.03;4.17;;;5.80;99.90;;;;;;5016835;28;20413;-66
2021/04/03 06:01:51;;;;;;;12.97;3.90;;;5.70;99.90;;;;;;5017408;28;20294;-66
2021/04/03 06:04:18;;;;;;;15.67;3.80;;;5.70;99.90;;;;;;5015770;28;20839;-66
2021/04/03 06:06:45;;;;;;;10.63;3.30;;;5.80;99.90;;;;;;5014567;28;20097;-67
2021/04/03 06:09:12;;;;;;;9.33;3.33;;;5.80;99.90;;;;;;5014757;28;20088;-66
2021/04/03 06:11:44;;;;;;;9.33;3.60;;;5.80;99.90;;;;;;5014907;28;20464;-67
2021/04/03 06:14:11;;;;;;;10.30;3.50;;;5.80;99.90;;;;;;5016030;28;20060;-66
2021/04/03 06:16:39;;;;;;;8.97;3.93;;;5.70;99.90;;;;;;5016450;28;20057;-67
2021/04/03 06:19:17;;;;;;;13.83;4.63;;;5.80;99.90;;;;;;5017259;28;20056;-66
2021/04/03 06:21:46;;;;;;;9.20;3.57;;;5.80;99.90;;;;;;5017823;28;20063;-66
2021/04/03 06:24:20;;;;;;;11.37;3.80;;;5.90;99.90;;;;;;5014795;28;20091;-66
2021/04/03 06:27:01;;;;;;;12.77;4.40;;;5.90;99.90;;;;;;5015241;28;20293;-67
2021/04/03 06:29:34;;;;;;;13.77;3.53;;;5.80;99.90;;;;;;5017905;28;20529;-66
2021/04/03 06:32:01;;;;;;;16.30;5.93;;;5.90;99.90;;;;;;5010226;28;20056;-67
2021/04/03 06:34:36;;;;;;;14.43;3.70;;;5.80;99.90;;;;;;5012409;28;20048;-66
2021/04/03 06:37:05;;;;;;;15.93;4.17;;;5.60;99.90;;;;;;5015280;28;20060;-66
2021/04/03 06:39:32;;;;;;;14.40;3.70;;;5.70;99.90;;;;;;5014742;28;20049;-66
2021/04/03 06:41:59;;;;;;;14.20;4.30;;;5.80;99.90;;;;;;5011223;28;20057;-66
2021/04/03 06:44:25;;;;;;;18.80;4.20;;;6.00;99.90;;;;;;5009320;28;20057;-66
2021/04/03 06:46:53;;;;;;;19.03;4.43;;;6.10;99.90;;;;;;5013086;28;20245;-66
2021/04/03 06:49:20;;;;;;;13.40;4.03;;;6.30;99.90;;;;;;5008798;28;20050;-66
2021/04/03 06:51:48;;;;;;;11.07;4.87;;;6.30;99.90;;;;;;5011100;28;20061;-66
2021/04/03 06:54:14;;;;;;;17.73;6.80;;;6.40;99.90;;;;;;5009822;28;20091;-66
2021/04/03 06:56:41;;;;;;;13.23;4.57;;;6.50;99.90;;;;;;5011803;28;20787;-68
2021/04/03 06:59:10;;;;;;;14.40;4.27;;;6.70;99.90;;;;;;5010323;28;20138;-66
2021/04/03 07:01:53;;;;;;;15.83;4.30;;;6.50;99.90;;;;;;5010206;28;20598;-66
2021/04/03 07:04:26;;;;;;;9.57;3.57;;;6.70;99.90;;;;;;5010202;28;20088;-67
2021/04/03 07:06:54;;;;;;;14.53;4.33;;;6.80;99.90;;;;;;5010392;28;20050;-67
2021/04/03 07:09:21;;;;;;;15.70;4.47;;;7.10;99.90;;;;;;5009899;28;20091;-66
2021/04/03 07:11:49;;;;;;;13.97;3.87;;;7.40;99.90;;;;;;5011232;28;20337;-67
2021/04/03 07:14:18;;;;;;;15.90;4.40;;;7.70;99.90;;;;;;5007847;28;20335;-67
2021/04/03 07:16:45;;;;;;;13.47;3.43;;;7.80;99.90;;;;;;5012890;28;20165;-67
2021/04/03 07:19:13;;;;;;;15.80;3.80;;;7.60;99.90;;;;;;5016714;28;20449;-67
2021/04/03 07:21:41;;;;;;;17.77;4.10;;;7.60;99.90;;;;;;5016765;28;20102;-66
2021/04/03 07:24:11;;;;;;;14.87;3.73;;;7.70;99.90;;;;;;5012665;28;20053;-67
2021/04/03 07:26:41;;;;;;;12.70;3.80;;;7.70;99.90;;;;;;5017913;28;20041;-67
2021/04/03 07:29:08;;;;;;;8.80;3.30;;;7.90;99.90;;;;;;5015428;28;20106;-66
2021/04/03 07:31:38;;;;;;;;;;;8.20;99.90;;;;;;5017586;28;20041;-67
2021/04/03 07:34:05;;;;;;;9.17;3.47;;;8.30;99.90;;;;;;5014144;28;20011;-67
2021/04/03 07:36:36;;;;;;;12.43;3.58;;;8.40;99.90;;;;;;5017097;28;20409;-67
2021/04/03 07:39:05;;;;;;;10.52;3.20;;;8.50;99.90;;;;;;5016695;28;20475;-66
2021/04/03 07:41:39;;;;;;;13.25;3.33;;;8.70;99.90;;;;;;5015323;28;20045;-67
2021/04/03 07:44:11;;;;;;;11.77;3.25;;;8.90;99.90;;;;;;5015520;28;20056;-67
2021/04/03 07:46:43;;;;;;;15.88;2.80;;;9.10;99.90;;;;;;5017052;28;20093;-67
2021/04/03 07:49:11;;;;;;;9.00;2.35;;;9.20;99.90;;;;;;5016795;28;20057;-67
2021/04/03 07:51:48;;;;;;;12.68;2.88;;;9.30;99.90;;;;;;5019983;28;20068;-67
2021/04/03 07:54:31;;;;;;;10.15;3.03;;;9.50;99.90;;;;;;5015056;28;20625;-67
2021/04/03 07:57:07;;;;;;;10.07;3.45;;;9.50;99.90;;;;;;5017058;28;20413;-67
2021/04/03 08:00:00;;;;;;;16.73;3.10;;;9.80;99.90;;;;;;5025766;28;20077;-67
2021/04/03 08:02:28;;;;;;;6.97;2.78;;;9.80;99.90;;;;;;5021769;28;20321;-68
2021/04/03 08:04:56;;;;;;;9.18;3.00;;;9.90;99.90;;;;;;5024974;28;20058;-67
2021/04/03 08:07:24;;;;;;;9.48;2.80;;;10.10;99.90;;;;;;5024036;28;20132;-68
2021/04/03 08:09:51;;;;;;;11.15;2.95;;;10.20;99.90;;;;;;5024971;28;20052;-67
2021/04/03 08:12:22;;;;;;;7.97;2.55;;;10.30;99.90;;;;;;5024362;28;20046;-67
2021/04/03 08:14:52;;;;;;;8.13;2.70;;;10.50;99.90;;;;;;5024575;28;20053;-67
2021/04/03 08:17:21;;;;;;;10.80;2.58;;;10.60;99.90;;;;;;5025355;28;20572;-68
2021/04/03 08:19:48;;;;;;;10.77;3.05;;;10.50;99.90;;;;;;5024886;28;20417;-68
2021/04/03 08:22:15;;;;;;;8.18;2.50;;;10.20;99.90;;;;;;5024936;28;20057;-68
2021/04/03 08:25:01;;;;;;;13.13;2.85;;;10.40;99.90;;;;;;5024632;28;20489;-68
2021/04/03 08:27:36;;;;;;;8.40;3.35;;;10.50;99.90;;;;;;5026083;28;20222;-68
2021/04/03 08:30:21;;;;;;;11.43;2.47;;;10.60;99.90;;;;;;5025235;28;20468;-67
2021/04/03 08:33:03;;;;;;;13.27;2.55;;;11.00;99.90;;;;;;5025944;28;20114;-67
2021/04/03 08:35:30;;;;;;;17.15;3.42;;;12.10;99.90;;;;;;5023761;28;20068;-68
2021/04/03 08:38:10;;;;;;;9.13;2.72;;;13.10;99.20;;;;;;5023463;28;20164;-67
2021/04/03 08:40:36;;;;;;;10.13;2.88;;;14.40;96.90;;;;;;5025224;28;20397;-68
2021/04/03 08:43:04;;;;;;;7.63;3.15;;;15.70;93.30;;;;;;5020607;28;20049;-68
2021/04/03 08:45:35;;;;;;;9.02;2.50;;;16.50;90.40;;;;;;5023346;28;20100;-68
2021/04/03 08:48:01;;;;;;;10.48;2.75;;;17.50;85.60;;;;;;5019774;28;20053;-68
2021/04/03 08:50:28;;;;;;;15.02;3.05;;;18.50;80.30;;;;;;5019804;28;20501;-68
2021/04/03 08:52:59;;;;;;;6.63;2.38;;;18.80;73.50;;;;;;5017567;28;20057;-68
2021/04/03 08:55:26;;;;;;;7.82;2.72;;;18.70;71.70;;;;;;5018675;28;21058;-68
2021/04/03 08:57:53;;;;;;;8.98;2.25;;;19.30;68.40;;;;;;5017685;28;20064;-67
2021/04/03 09:00:22;;;;;;;9.77;2.78;;;20.20;63.40;;;;;;5019453;28;20494;-68
2021/04/03 09:02:49;;;;;;;7.10;2.10;;;20.20;61.90;;;;;;5016539;28;20048;-69
2021/04/03 09:05:17;;;;;;;6.60;2.00;;;20.00;60.90;;;;;;5016678;28;20960;-70
2021/04/03 09:07:43;;;;;;;7.60;3.08;;;20.50;58.90;;;;;;5019304;28;20083;-67
2021/04/03 09:10:11;;;;;;;10.60;2.65;;;21.00;58.30;;;;;;5019779;28;20045;-68
2021/04/03 09:12:39;;;;;;;12.27;2.75;;;21.00;57.30;;;;;;5016244;28;20052;-67
2021/04/03 09:15:07;;;;;;;4.70;2.17;;;21.90;55.00;;;;;;5019880;28;20513;-68
2021/04/03 09:17:35;;;;;;;7.60;2.03;;;21.70;55.00;;;;;;5020347;28;20290;-68
2021/04/03 09:20:08;;;;;;;7.30;2.50;;;22.20;53.70;;;;;;5019588;28;20525;-67
2021/04/03 09:22:38;;;;;;;8.27;2.72;;;22.80;52.90;;;;;;5014965;28;20056;-68
2021/04/03 09:25:08;;;;;;;11.43;2.35;;;22.80;52.00;;;;;;5016901;28;20512;-68
2021/04/03 09:27:35;;;;;;;6.68;2.30;;;22.90;51.50;;;;;;5018215;28;20092;-67
2021/04/03 09:30:05;;;;;;;7.20;2.38;;;23.10;51.50;;;;;;5015271;28;20095;-68
2021/04/03 09:32:41;;;;;;;6.03;2.55;;;22.60;51.00;;;;;;5018721;28;20301;-67
2021/04/03 09:35:09;;;;;;;9.15;2.45;;;21.00;51.60;;;;;;5014678;28;20513;-70
2021/04/03 09:37:35;;;;;;;8.35;2.05;;;19.30;53.10;;;;;;5017850;28;20426;-70
2021/04/03 09:40:03;;;;;;;7.60;2.25;;;18.80;53.70;;;;;;5018546;28;20110;-69
2021/04/03 09:42:30;;;;;;;11.40;2.47;;;19.50;53.40;;;;;;5015911;28;20053;-69
2021/04/03 09:44:58;;;;;;;6.45;2.22;;;19.90;52.50;;;;;;5016311;28;20339;-69
2021/04/03 09:47:26;;;;;;;10.60;2.55;;;20.70;51.80;;;;;;5016597;28;20099;-68
2021/04/03 09:49:53;;;;;;;6.15;2.30;;;20.40;51.50;;;;;;5016894;28;20052;-69
2021/04/03 09:52:20;;;;;;;5.15;2.05;;;21.20;51.30;;;;;;5017829;28;20049;-69
2021/04/03 09:54:48;;;;;;;7.57;2.22;;;21.20;50.40;;;;;;5013784;28;20077;-69
2021/04/03 09:57:16;;;;;;;8.30;2.10;;;22.10;50.80;;;;;;5018750;28;20086;-69
2021/04/03 09:59:43;;;;;;;13.48;2.40;;;22.50;50.10;;;;;;5016035;28;20095;-69
2021/04/03 10:02:11;;;;;;;7.97;2.38;;;22.50;49.90;;;;;;5017597;28;20050;-66
2021/04/03 10:04:38;;;;;;;7.50;2.53;;;23.30;49.20;;;;;;5017149;28;20084;-66
2021/04/03 10:07:06;;;;;;;8.73;2.55;;;23.90;49.10;;;;;;5012569;28;20497;-66
2021/04/03 10:09:32;;;;;;;8.50;2.30;;;23.70;47.00;;;;;;5018181;28;20049;-66
2021/04/03 10:11:59;;;;;;;9.38;2.42;;;23.80;47.60;;;;;;5015929;28;20409;-67
2021/04/03 10:14:26;;;;;;;6.43;2.00;;;25.10;47.50;;;;;;5015380;28;20046;-69
2021/04/03 10:16:53;;;;;;;7.30;2.05;;;24.80;45.30;;;;;;5015287;28;20061;-69
2021/04/03 10:19:19;;;;;;;5.70;1.67;;;23.70;44.70;;;;;;5014462;28;20064;-69
2021/04/03 10:21:46;;;;;;;6.40;2.10;;;23.10;45.60;;;;;;5020156;28;20080;-69
2021/04/03 10:24:13;;;;;;;10.18;2.45;;;23.40;45.50;;;;;;5018611;28;20143;-67
2021/04/03 10:26:40;;;;;;;6.53;1.90;;;24.20;45.90;;;;;;5014350;28;20068;-69
2021/04/03 10:29:06;;;;;;;5.18;2.08;;;23.20;45.80;;;;;;5016670;28;20045;-69
2021/04/03 10:31:33;;;;;;;13.48;2.28;;;22.20;47.10;;;;;;5016066;28;20092;-69
2021/04/03 10:33:59;;;;;;;6.97;2.15;;;21.00;47.50;;;;;;5015581;28;20099;-69
2021/04/03 10:36:26;;;;;;;8.73;2.45;;;18.90;49.00;;;;;;5018953;28;20046;-69
2021/04/03 10:38:52;;;;;;;6.68;2.20;;;18.20;50.50;;;;;;5026616;28;20053;-69
2021/04/03 10:41:20;;;;;;;6.45;2.17;;;18.60;50.80;;;;;;5027747;28;20041;-69
2021/04/03 10:43:47;;;;;;;7.78;1.83;;;18.40;50.70;;;;;;5023992;28;20075;-69
2021/04/03 10:46:14;;;;;;;9.20;1.95;;;18.50;50.80;;;;;;5017205;28;20505;-69
2021/04/03 10:48:40;;;;;;;6.00;2.13;;;17.70;51.70;;;;;;5016400;28;20582;-69
2021/04/03 10:51:07;;;;;;;12.70;2.85;;;18.70;50.80;;;;;;5010267;28;20072;-69
2021/04/03 10:53:33;;;;;;;6.35;1.73;;;19.40;51.00;;;;;;5014046;28;20080;-70
2021/04/03 10:56:00;;;;;;;7.13;2.08;;;20.80;51.00;;;;;;5011724;28;20123;-70
2021/04/03 10:58:27;;;;;;;10.07;2.20;;;21.80;48.80;;;;;;5013104;28;20544;-70
2021/04/03 11:00:54;;;;;;;10.40;2.28;;;23.00;48.20;;;;;;5012969;28;20084;-70
2021/04/03 11:03:20;;;;;;;4.90;2.13;;;23.60;46.70;;;;;;5009695;28;20084;-70
2021/04/03 11:05:47;;;;;;;9.30;2.38;;;22.70;46.40;;;;;;5010362;28;20154;-70
2021/04/03 11:08:14;;;;;;;7.20;2.28;;;20.30;47.80;;;;;;5014512;28;20049;-70
2021/04/03 11:10:40;;;;;;;11.23;2.50;;;19.30;48.60;;;;;;5011281;28;20058;-70
2021/04/03 11:13:07;;;;;;;9.57;2.20;;;18.20;49.40;;;;;;5015732;28;20091;-70
2021/04/03 11:15:34;;;;;;;7.50;2.28;;;18.00;50.10;;;;;;5013330;28;20049;-70
2021/04/03 11:18:00;;;;;;;7.45;2.33;;;17.50;50.70;;;;;;5018249;28;20080;-70
2021/04/03 11:20:27;;;;;;;7.45;2.33;;;16.50;52.70;;;;;;5018648;28;20056;-69
2021/04/03 11:22:53;;;;;;;5.70;1.90;;;16.30;53.10;;;;;;5017161;28;20053;-69
2021/04/03 11:25:20;;;;;;;4.88;1.88;;;16.10;53.50;;;;;;5016679;28;20098;-70
2021/04/03 11:27:46;;;;;;;10.07;2.33;;;15.70;54.10;;;;;;5016453;28;20458;-69
2021/04/03 11:30:14;;;;;;;5.38;1.92;;;15.50;54.50;;;;;;5022846;28;20045;-70
2021/04/03 11:32:42;;;;;;;9.20;1.90;;;15.60;54.00;;;;;;5024007;28;20057;-70
2021/04/03 11:35:09;;;;;;;7.25;1.92;;;15.90;53.30;;;;;;5023837;28;20513;-69
2021/04/03 11:37:36;;;;;;;8.30;1.92;;;16.20;52.80;;;;;;5025114;28;20038;-70
2021/04/03 11:40:03;;;;;;;6.25;1.70;;;16.20;52.50;;;;;;5023827;28;20241;-69
2021/04/03 11:42:30;;;;;;;5.82;1.88;;;16.40;52.80;;;;;;5029554;28;20052;-69
2021/04/03 11:44:56;;;;;;;6.68;1.50;;;16.40;51.20;;;;;;5022094;28;20482;-69
2021/04/03 11:47:23;;;;;;;6.57;1.58;;;16.20;49.80;;;;;;5017863;28;20080;-69
2021/04/03 11:49:51;;;;;;;7.90;1.52;;;16.30;50.20;;;;;;5025633;28;20128;-69
2021/04/03 11:52:18;;;;;;;5.35;1.65;;;16.30;50.80;;;;;;5020902;28;20052;-69
2021/04/03 11:54:45;;;;;;;8.93;1.58;;;15.60;50.20;;;;;;5021373;28;20072;-69
2021/04/03 11:57:11;;;;;;;7.45;1.85;;;16.20;50.90;;;;;;5018110;28;20051;-68
2021/04/03 11:59:38;;;;;;;9.32;1.90;;;16.30;50.00;;;;;;5015308;28;20052;-68
2021/04/03 12:02:05;;;;;;;11.45;2.05;;;17.40;49.40;;;;;;5020019;28;20049;-68
2021/04/03 12:04:31;;;;;;;5.82;1.60;;;18.30;48.50;;;;;;5017277;28;20752;-68
2021/04/03 12:06:58;;;;;;;7.70;1.83;;;17.80;48.00;;;;;;5017124;28;20596;-68
2021/04/03 12:09:25;;;;;;;5.07;1.65;;;17.40;48.80;;;;;;5010223;28;20731;-68
2021/04/03 12:11:52;;;;;;;9.05;1.67;;;18.60;48.10;;;;;;5013906;28;20572;-68
2021/04/03 12:14:20;;;;;;;4.00;1.52;;;19.20;47.60;;;;;;5016640;28;20053;-68
2021/04/03 12:16:46;;;;;;;5.25;1.52;;;20.70;45.90;;;;;;5015932;28;21122;-68
2021/04/03 12:19:13;;;;;;;2.63;1.10;;;20.80;45.40;;;;;;5016472;28;20060;-69
2021/04/03 12:21:39;;;;;;;5.38;1.70;;;20.80;43.30;;;;;;5018988;28;20059;-68
2021/04/03 12:24:08;;;;;;;3.50;1.15;;;20.00;43.10;;;;;;5013808;28;20057;-69
2021/04/03 12:26:34;;;;;;;4.75;1.52;;;20.50;43.80;;;;;;5021534;28;20719;-69
2021/04/03 12:29:01;;;;;;;5.35;1.38;;;19.30;43.50;;;;;;5021764;28;20064;-70
2021/04/03 12:31:27;;;;;;;9.23;1.73;;;18.90;43.10;;;;;;5019459;28;20081;-69
2021/04/03 12:33:54;;;;;;;5.30;1.40;;;18.10;44.70;;;;;;5021225;28;20042;-68
2021/04/03 12:36:21;;;;;;;6.35;1.80;;;17.90;45.90;;;;;;5020480;28;20530;-68
2021/04/03 12:38:47;;;;;;;4.68;1.45;;;17.50;46.10;;;;;;5025514;28;20061;-69
2021/04/03 12:41:15;;;;;;;12.70;1.80;;;18.30;45.90;;;;;;5017071;28;20115;-69
2021/04/03 12:43:41;;;;;;;9.20;1.55;;;18.70;45.60;;;;;;5020327;28;21255;-69
2021/04/03 12:46:09;;;;;;;5.15;1.77;;;18.00;45.80;;;;;;5021385;28;20052;-69
2021/04/03 12:48:35;;;;;;;10.38;1.80;;;17.40;46.90;;;;;;5019723;28;20060;-68
2021/04/03 12:51:02;;;;;;;9.07;1.65;;;16.00;48.40;;;;;;5016475;28;20100;-68
2021/04/03 12:53:29;;;;;;;5.15;1.70;;;15.90;49.30;;;;;;5010428;28;20425;-69
2021/04/03 12:55:56;;;;;;;6.35;2.00;;;15.80;49.60;;;;;;5013759;28;20049;-69
2021/04/03 12:58:24;;;;;;;9.45;1.60;;;15.60;49.30;;;;;;5013458;28;20142;-69